sensor_id;sensor_type;location;lat;lon;timestamp;temperature;humidity
9885;DHT22;4981;50.966;4.842;2023-05-10T00:02:13;12.80;1.00
9885;DHT22;4981;50.966;4.842;2023-05-10T00:04:40;12.80;1.00
9885;DHT22;4981;50.966;4.842;2023-05-10T00:07:06;12.80;1.00
9885;DHT22;4981;50.966;4.842;2023-05-10T00:09:33;12.80;1.00
9885;DHT22;4981;50.966;4.842;2023-05-10T00:12:01;12.70;1.00
9885;DHT22;4981;50.966;4.842;2023-05-10T00:14:29;12.80;1.00
9885;DHT22;4981;50.966;4.842;2023-05-10T00:16:56;12.70;1.00
9885;DHT22;4981;50.966;4.842;2023-05-10T00:19:23;12.80;1.00
9885;DHT22;4981;50.966;4.842;2023-05-10T00:21:50;12.70;1.00
9885;DHT22;4981;50.966;4.842;2023-05-10T00:24:17;12.70;1.00
9885;DHT22;4981;50.966;4.842;2023-05-10T00:26:44;12.70;1.00
9885;DHT22;4981;50.966;4.842;2023-05-10T00:29:11;12.80;1.00
9885;DHT22;4981;50.966;4.842;2023-05-10T00:31:39;12.80;1.00
9885;DHT22;4981;50.966;4.842;2023-05-10T00:34:06;12.80;1.00
9885;DHT22;4981;50.966;4.842;2023-05-10T00:36:33;12.70;1.00
9885;DHT22;4981;50.966;4.842;2023-05-10T00:39:00;12.80;1.00
9885;DHT22;4981;50.966;4.842;2023-05-10T00:41:29;12.70;1.00
9885;DHT22;4981;50.966;4.842;2023-05-10T00:43:57;12.70;1.00
9885;DHT22;4981;50.966;4.842;2023-05-10T00:46:25;11.70;1.00
9885;DHT22;4981;50.966;4.842;2023-05-10T00:48:53;12.80;1.00
9885;DHT22;4981;50.966;4.842;2023-05-10T00:51:21;12.80;1.00
9885;DHT22;4981;50.966;4.842;2023-05-10T00:53:48;12.80;1.00
9885;DHT22;4981;50.966;4.842;2023-05-10T00:56:16;12.70;1.00
9885;DHT22;4981;50.966;4.842;2023-05-10T00:58:43;12.70;1.00
9885;DHT22;4981;50.966;4.842;2023-05-10T01:01:10;12.70;1.00
9885;DHT22;4981;50.966;4.842;2023-05-10T01:03:39;12.70;1.00
9885;DHT22;4981;50.966;4.842;2023-05-10T01:06:08;12.70;1.00
9885;DHT22;4981;50.966;4.842;2023-05-10T01:08:37;12.70;1.00
9885;DHT22;4981;50.966;4.842;2023-05-10T01:11:04;12.70;1.00
9885;DHT22;4981;50.966;4.842;2023-05-10T01:13:33;12.70;1.00
9885;DHT22;4981;50.966;4.842;2023-05-10T01:16:01;12.60;1.00
9885;DHT22;4981;50.966;4.842;2023-05-10T01:18:29;12.60;1.00
9885;DHT22;4981;50.966;4.842;2023-05-10T01:21:04;12.60;1.00
9885;DHT22;4981;50.966;4.842;2023-05-10T01:26:53;12.60;1.00
9885;DHT22;4981;50.966;4.842;2023-05-10T01:32:30;12.60;1.00
9885;DHT22;4981;50.966;4.842;2023-05-10T01:35:02;12.40;1.00
9885;DHT22;4981;50.966;4.842;2023-05-10T01:37:36;12.60;1.00
9885;DHT22;4981;50.966;4.842;2023-05-10T01:40:13;12.50;1.00
9885;DHT22;4981;50.966;4.842;2023-05-10T01:42:47;12.60;1.00
9885;DHT22;4981;50.966;4.842;2023-05-10T01:45:21;12.60;1.00
9885;DHT22;4981;50.966;4.842;2023-05-10T01:47:58;12.50;1.00
9885;DHT22;4981;50.966;4.842;2023-05-10T01:50:30;12.70;1.00
9885;DHT22;4981;50.966;4.842;2023-05-10T01:52:59;12.60;1.00
9885;DHT22;4981;50.966;4.842;2023-05-10T01:55:29;12.50;1.00
9885;DHT22;4981;50.966;4.842;2023-05-10T01:58:02;12.50;1.00
9885;DHT22;4981;50.966;4.842;2023-05-10T02:00:30;12.50;1.00
9885;DHT22;4981;50.966;4.842;2023-05-10T02:03:01;12.60;1.00
9885;DHT22;4981;50.966;4.842;2023-05-10T02:05:32;12.60;1.00
9885;DHT22;4981;50.966;4.842;2023-05-10T02:08:00;12.50;1.00
9885;DHT22;4981;50.966;4.842;2023-05-10T02:10:30;12.50;1.00
9885;DHT22;4981;50.966;4.842;2023-05-10T02:12:59;12.50;1.00
9885;DHT22;4981;50.966;4.842;2023-05-10T02:15:27;12.50;1.00
9885;DHT22;4981;50.966;4.842;2023-05-10T02:17:55;12.50;1.00
9885;DHT22;4981;50.966;4.842;2023-05-10T02:20:25;12.50;1.00
9885;DHT22;4981;50.966;4.842;2023-05-10T02:22:54;12.50;1.00
9885;DHT22;4981;50.966;4.842;2023-05-10T02:25:23;12.50;1.00
9885;DHT22;4981;50.966;4.842;2023-05-10T02:27:56;12.50;1.00
9885;DHT22;4981;50.966;4.842;2023-05-10T02:30:23;12.50;1.00
9885;DHT22;4981;50.966;4.842;2023-05-10T02:32:51;12.50;1.00
9885;DHT22;4981;50.966;4.842;2023-05-10T02:35:19;12.50;1.00
9885;DHT22;4981;50.966;4.842;2023-05-10T02:37:48;12.50;1.00
9885;DHT22;4981;50.966;4.842;2023-05-10T02:40:16;12.50;1.00
9885;DHT22;4981;50.966;4.842;2023-05-10T02:42:45;11.30;1.00
9885;DHT22;4981;50.966;4.842;2023-05-10T02:45:17;12.50;1.00
9885;DHT22;4981;50.966;4.842;2023-05-10T02:47:44;12.60;1.00
9885;DHT22;4981;50.966;4.842;2023-05-10T02:50:11;12.50;1.00
9885;DHT22;4981;50.966;4.842;2023-05-10T02:52:45;12.50;1.00
9885;DHT22;4981;50.966;4.842;2023-05-10T02:55:15;12.50;1.00
9885;DHT22;4981;50.966;4.842;2023-05-10T02:57:48;12.50;1.00
9885;DHT22;4981;50.966;4.842;2023-05-10T03:00:15;12.60;1.00
9885;DHT22;4981;50.966;4.842;2023-05-10T03:02:42;12.50;1.00
9885;DHT22;4981;50.966;4.842;2023-05-10T03:05:09;12.50;1.00
9885;DHT22;4981;50.966;4.842;2023-05-10T03:07:36;12.50;1.00
9885;DHT22;4981;50.966;4.842;2023-05-10T03:10:04;12.50;1.00
9885;DHT22;4981;50.966;4.842;2023-05-10T03:12:43;12.60;1.00
9885;DHT22;4981;50.966;4.842;2023-05-10T03:15:17;12.50;1.00
9885;DHT22;4981;50.966;4.842;2023-05-10T03:17:48;12.50;1.00
9885;DHT22;4981;50.966;4.842;2023-05-10T03:20:22;12.50;1.00
9885;DHT22;4981;50.966;4.842;2023-05-10T03:22:55;12.50;1.00
9885;DHT22;4981;50.966;4.842;2023-05-10T03:25:23;12.50;1.00
9885;DHT22;4981;50.966;4.842;2023-05-10T03:27:52;12.50;1.00
9885;DHT22;4981;50.966;4.842;2023-05-10T03:30:20;12.50;1.00
9885;DHT22;4981;50.966;4.842;2023-05-10T03:32:48;12.50;1.00
9885;DHT22;4981;50.966;4.842;2023-05-10T03:35:15;12.60;1.00
9885;DHT22;4981;50.966;4.842;2023-05-10T03:37:42;12.50;1.00
9885;DHT22;4981;50.966;4.842;2023-05-10T03:40:09;12.50;1.00
9885;DHT22;4981;50.966;4.842;2023-05-10T03:42:36;12.60;1.00
9885;DHT22;4981;50.966;4.842;2023-05-10T03:45:06;12.60;1.00
9885;DHT22;4981;50.966;4.842;2023-05-10T03:47:33;12.50;1.00
9885;DHT22;4981;50.966;4.842;2023-05-10T03:50:00;12.50;1.00
9885;DHT22;4981;50.966;4.842;2023-05-10T03:52:27;12.50;1.00
9885;DHT22;4981;50.966;4.842;2023-05-10T03:54:54;12.50;1.00
9885;DHT22;4981;50.966;4.842;2023-05-10T03:57:21;12.50;1.00
9885;DHT22;4981;50.966;4.842;2023-05-10T03:59:48;12.50;1.00
9885;DHT22;4981;50.966;4.842;2023-05-10T04:02:16;12.40;1.00
9885;DHT22;4981;50.966;4.842;2023-05-10T04:04:43;12.40;1.00
9885;DHT22;4981;50.966;4.842;2023-05-10T04:07:10;12.40;1.00
9885;DHT22;4981;50.966;4.842;2023-05-10T04:09:37;12.40;1.00
9885;DHT22;4981;50.966;4.842;2023-05-10T04:12:04;12.40;1.00
9885;DHT22;4981;50.966;4.842;2023-05-10T04:14:31;10.20;1.00
9885;DHT22;4981;50.966;4.842;2023-05-10T04:16:58;12.40;1.00
9885;DHT22;4981;50.966;4.842;2023-05-10T04:19:30;12.30;1.00
9885;DHT22;4981;50.966;4.842;2023-05-10T04:21:57;12.40;1.00
9885;DHT22;4981;50.966;4.842;2023-05-10T04:24:24;12.30;1.00
9885;DHT22;4981;50.966;4.842;2023-05-10T04:26:51;12.30;1.00
9885;DHT22;4981;50.966;4.842;2023-05-10T04:29:18;12.20;1.00
9885;DHT22;4981;50.966;4.842;2023-05-10T04:31:45;12.20;1.00
9885;DHT22;4981;50.966;4.842;2023-05-10T04:34:12;12.00;1.00
9885;DHT22;4981;50.966;4.842;2023-05-10T04:36:40;11.90;1.00
9885;DHT22;4981;50.966;4.842;2023-05-10T04:39:07;11.80;1.00
9885;DHT22;4981;50.966;4.842;2023-05-10T04:41:35;11.80;1.00
9885;DHT22;4981;50.966;4.842;2023-05-10T04:44:04;11.90;1.00
9885;DHT22;4981;50.966;4.842;2023-05-10T04:46:31;11.80;1.00
9885;DHT22;4981;50.966;4.842;2023-05-10T04:48:58;11.70;1.00
9885;DHT22;4981;50.966;4.842;2023-05-10T04:51:25;11.80;1.00
9885;DHT22;4981;50.966;4.842;2023-05-10T04:53:54;11.70;1.00
9885;DHT22;4981;50.966;4.842;2023-05-10T04:56:21;11.80;1.00
9885;DHT22;4981;50.966;4.842;2023-05-10T04:58:48;11.80;1.00
9885;DHT22;4981;50.966;4.842;2023-05-10T05:01:15;11.80;1.00
9885;DHT22;4981;50.966;4.842;2023-05-10T05:03:42;11.80;1.00
9885;DHT22;4981;50.966;4.842;2023-05-10T05:06:09;11.70;1.00
9885;DHT22;4981;50.966;4.842;2023-05-10T05:08:36;11.70;1.00
9885;DHT22;4981;50.966;4.842;2023-05-10T05:11:04;11.70;1.00
9885;DHT22;4981;50.966;4.842;2023-05-10T05:13:31;11.70;1.00
9885;DHT22;4981;50.966;4.842;2023-05-10T05:16:00;11.70;1.00
9885;DHT22;4981;50.966;4.842;2023-05-10T05:18:27;11.70;1.00
9885;DHT22;4981;50.966;4.842;2023-05-10T05:20:54;11.70;1.00
9885;DHT22;4981;50.966;4.842;2023-05-10T05:23:21;11.70;1.00
9885;DHT22;4981;50.966;4.842;2023-05-10T05:25:51;11.80;1.00
9885;DHT22;4981;50.966;4.842;2023-05-10T05:28:19;11.80;1.00
9885;DHT22;4981;50.966;4.842;2023-05-10T05:30:46;11.90;1.00
9885;DHT22;4981;50.966;4.842;2023-05-10T05:33:14;11.80;1.00
9885;DHT22;4981;50.966;4.842;2023-05-10T05:35:41;11.80;1.00
9885;DHT22;4981;50.966;4.842;2023-05-10T05:38:13;11.80;1.00
9885;DHT22;4981;50.966;4.842;2023-05-10T05:40:39;12.00;1.00
9885;DHT22;4981;50.966;4.842;2023-05-10T05:43:06;12.00;1.00
9885;DHT22;4981;50.966;4.842;2023-05-10T05:45:35;11.90;1.00
9885;DHT22;4981;50.966;4.842;2023-05-10T05:48:02;11.90;1.00
9885;DHT22;4981;50.966;4.842;2023-05-10T05:50:29;11.90;1.00
9885;DHT22;4981;50.966;4.842;2023-05-10T05:52:56;11.90;1.00
9885;DHT22;4981;50.966;4.842;2023-05-10T05:55:23;11.90;1.00
9885;DHT22;4981;50.966;4.842;2023-05-10T05:57:51;11.90;1.00
9885;DHT22;4981;50.966;4.842;2023-05-10T06:00:18;12.00;1.00
9885;DHT22;4981;50.966;4.842;2023-05-10T06:02:46;12.00;1.00
9885;DHT22;4981;50.966;4.842;2023-05-10T06:05:13;12.00;1.00
9885;DHT22;4981;50.966;4.842;2023-05-10T06:07:40;12.10;1.00
9885;DHT22;4981;50.966;4.842;2023-05-10T06:10:08;11.30;1.00
9885;DHT22;4981;50.966;4.842;2023-05-10T06:12:35;12.10;1.00
9885;DHT22;4981;50.966;4.842;2023-05-10T06:15:03;12.20;1.00
9885;DHT22;4981;50.966;4.842;2023-05-10T06:17:30;12.20;1.00
9885;DHT22;4981;50.966;4.842;2023-05-10T06:19:58;12.20;1.00
9885;DHT22;4981;50.966;4.842;2023-05-10T06:22:25;12.20;1.00
9885;DHT22;4981;50.966;4.842;2023-05-10T06:24:52;12.00;1.00
9885;DHT22;4981;50.966;4.842;2023-05-10T06:27:19;12.10;1.00
9885;DHT22;4981;50.966;4.842;2023-05-10T06:29:46;12.30;1.00
9885;DHT22;4981;50.966;4.842;2023-05-10T06:32:13;12.20;1.00
9885;DHT22;4981;50.966;4.842;2023-05-10T06:34:40;12.40;1.00
9885;DHT22;4981;50.966;4.842;2023-05-10T06:37:10;12.20;1.00
9885;DHT22;4981;50.966;4.842;2023-05-10T06:39:37;12.20;1.00
9885;DHT22;4981;50.966;4.842;2023-05-10T06:42:04;12.30;1.00
9885;DHT22;4981;50.966;4.842;2023-05-10T06:44:31;12.30;1.00
9885;DHT22;4981;50.966;4.842;2023-05-10T06:46:58;12.40;1.00
9885;DHT22;4981;50.966;4.842;2023-05-10T06:49:25;12.30;1.00
9885;DHT22;4981;50.966;4.842;2023-05-10T06:51:52;12.50;1.00
9885;DHT22;4981;50.966;4.842;2023-05-10T06:54:20;13.30;1.00
9885;DHT22;4981;50.966;4.842;2023-05-10T06:56:47;12.40;1.00
9885;DHT22;4981;50.966;4.842;2023-05-10T06:59:14;12.40;1.00
9885;DHT22;4981;50.966;4.842;2023-05-10T07:01:42;12.50;1.00
9885;DHT22;4981;50.966;4.842;2023-05-10T07:04:09;12.50;1.00
9885;DHT22;4981;50.966;4.842;2023-05-10T07:06:36;12.40;1.00
9885;DHT22;4981;50.966;4.842;2023-05-10T07:09:03;13.60;1.00
9885;DHT22;4981;50.966;4.842;2023-05-10T07:11:31;12.40;1.00
9885;DHT22;4981;50.966;4.842;2023-05-10T07:13:58;12.50;1.00
9885;DHT22;4981;50.966;4.842;2023-05-10T07:16:25;12.40;1.00
9885;DHT22;4981;50.966;4.842;2023-05-10T07:18:52;12.50;1.00
9885;DHT22;4981;50.966;4.842;2023-05-10T07:21:19;11.50;1.00
9885;DHT22;4981;50.966;4.842;2023-05-10T07:23:46;12.50;1.00
9885;DHT22;4981;50.966;4.842;2023-05-10T07:26:13;12.50;1.00
9885;DHT22;4981;50.966;4.842;2023-05-10T07:28:41;12.40;1.00
9885;DHT22;4981;50.966;4.842;2023-05-10T07:31:08;12.50;1.00
9885;DHT22;4981;50.966;4.842;2023-05-10T07:33:36;12.50;1.00
9885;DHT22;4981;50.966;4.842;2023-05-10T07:36:03;12.50;1.00
9885;DHT22;4981;50.966;4.842;2023-05-10T07:38:30;12.70;1.00
9885;DHT22;4981;50.966;4.842;2023-05-10T07:40:56;12.70;1.00
9885;DHT22;4981;50.966;4.842;2023-05-10T07:43:23;12.50;1.00
9885;DHT22;4981;50.966;4.842;2023-05-10T07:45:52;12.60;1.00
9885;DHT22;4981;50.966;4.842;2023-05-10T07:48:19;12.70;1.00
9885;DHT22;4981;50.966;4.842;2023-05-10T07:50:46;12.70;1.00
9885;DHT22;4981;50.966;4.842;2023-05-10T07:53:13;12.60;1.00
9885;DHT22;4981;50.966;4.842;2023-05-10T07:55:40;12.70;1.00
9885;DHT22;4981;50.966;4.842;2023-05-10T07:58:07;12.70;1.00
9885;DHT22;4981;50.966;4.842;2023-05-10T08:00:34;13.20;1.00
9885;DHT22;4981;50.966;4.842;2023-05-10T08:03:02;12.60;1.00
9885;DHT22;4981;50.966;4.842;2023-05-10T08:05:29;12.40;1.00
9885;DHT22;4981;50.966;4.842;2023-05-10T08:07:56;12.30;1.00
9885;DHT22;4981;50.966;4.842;2023-05-10T08:10:24;12.20;1.00
9885;DHT22;4981;50.966;4.842;2023-05-10T08:12:51;12.20;1.00
9885;DHT22;4981;50.966;4.842;2023-05-10T08:15:18;12.20;1.00
9885;DHT22;4981;50.966;4.842;2023-05-10T08:17:45;12.30;1.00
9885;DHT22;4981;50.966;4.842;2023-05-10T08:20:15;12.20;1.00
9885;DHT22;4981;50.966;4.842;2023-05-10T08:22:44;12.10;1.00
9885;DHT22;4981;50.966;4.842;2023-05-10T08:25:11;12.20;1.00
9885;DHT22;4981;50.966;4.842;2023-05-10T08:27:38;12.30;1.00
9885;DHT22;4981;50.966;4.842;2023-05-10T08:30:07;12.10;1.00
9885;DHT22;4981;50.966;4.842;2023-05-10T08:32:34;12.10;1.00
9885;DHT22;4981;50.966;4.842;2023-05-10T08:35:03;12.00;1.00
9885;DHT22;4981;50.966;4.842;2023-05-10T08:37:32;12.20;1.00
9885;DHT22;4981;50.966;4.842;2023-05-10T08:39:59;12.30;1.00
9885;DHT22;4981;50.966;4.842;2023-05-10T08:42:28;12.40;1.00
9885;DHT22;4981;50.966;4.842;2023-05-10T08:44:57;12.40;1.00
9885;DHT22;4981;50.966;4.842;2023-05-10T08:47:26;12.40;1.00
9885;DHT22;4981;50.966;4.842;2023-05-10T08:49:54;11.90;1.00
9885;DHT22;4981;50.966;4.842;2023-05-10T08:52:24;12.20;1.00
9885;DHT22;4981;50.966;4.842;2023-05-10T08:54:54;12.90;1.00
9885;DHT22;4981;50.966;4.842;2023-05-10T08:57:21;12.20;1.00
9885;DHT22;4981;50.966;4.842;2023-05-10T08:59:48;12.50;1.00
9885;DHT22;4981;50.966;4.842;2023-05-10T09:02:17;12.40;1.00
9885;DHT22;4981;50.966;4.842;2023-05-10T09:04:45;12.40;1.00
9885;DHT22;4981;50.966;4.842;2023-05-10T09:07:12;12.30;1.00
9885;DHT22;4981;50.966;4.842;2023-05-10T09:09:39;12.30;1.00
9885;DHT22;4981;50.966;4.842;2023-05-10T09:12:08;12.40;1.00
9885;DHT22;4981;50.966;4.842;2023-05-10T09:14:37;12.30;1.00
9885;DHT22;4981;50.966;4.842;2023-05-10T09:17:04;12.20;1.00
9885;DHT22;4981;50.966;4.842;2023-05-10T09:19:31;12.20;1.00
9885;DHT22;4981;50.966;4.842;2023-05-10T09:21:58;12.30;1.00
9885;DHT22;4981;50.966;4.842;2023-05-10T09:24:28;12.40;1.00
9885;DHT22;4981;50.966;4.842;2023-05-10T09:26:57;12.40;1.00
9885;DHT22;4981;50.966;4.842;2023-05-10T09:29:25;12.40;1.00
9885;DHT22;4981;50.966;4.842;2023-05-10T09:31:52;12.50;1.00
9885;DHT22;4981;50.966;4.842;2023-05-10T09:34:22;12.60;1.00
9885;DHT22;4981;50.966;4.842;2023-05-10T09:36:56;12.60;1.00
9885;DHT22;4981;50.966;4.842;2023-05-10T09:39:30;12.60;1.00
9885;DHT22;4981;50.966;4.842;2023-05-10T09:41:58;12.60;1.00
9885;DHT22;4981;50.966;4.842;2023-05-10T09:44:27;12.60;1.00
9885;DHT22;4981;50.966;4.842;2023-05-10T09:46:54;12.70;1.00
9885;DHT22;4981;50.966;4.842;2023-05-10T09:49:22;12.80;1.00
9885;DHT22;4981;50.966;4.842;2023-05-10T09:52:00;12.80;1.00
9885;DHT22;4981;50.966;4.842;2023-05-10T09:54:28;13.70;1.00
9885;DHT22;4981;50.966;4.842;2023-05-10T09:56:55;12.80;1.00
9885;DHT22;4981;50.966;4.842;2023-05-10T09:59:24;12.80;1.00
9885;DHT22;4981;50.966;4.842;2023-05-10T10:01:56;12.80;1.00
9885;DHT22;4981;50.966;4.842;2023-05-10T10:04:23;12.90;1.00
9885;DHT22;4981;50.966;4.842;2023-05-10T10:07:00;13.00;1.00
9885;DHT22;4981;50.966;4.842;2023-05-10T10:09:28;13.00;1.00
9885;DHT22;4981;50.966;4.842;2023-05-10T10:11:55;12.90;1.00
9885;DHT22;4981;50.966;4.842;2023-05-10T10:14:23;13.00;1.00
9885;DHT22;4981;50.966;4.842;2023-05-10T10:16:50;13.20;1.00
9885;DHT22;4981;50.966;4.842;2023-05-10T10:19:19;13.20;1.00
9885;DHT22;4981;50.966;4.842;2023-05-10T10:21:47;13.20;1.00
9885;DHT22;4981;50.966;4.842;2023-05-10T10:24:14;13.20;1.00
9885;DHT22;4981;50.966;4.842;2023-05-10T10:26:42;12.90;1.00
9885;DHT22;4981;50.966;4.842;2023-05-10T10:29:16;13.00;1.00
9885;DHT22;4981;50.966;4.842;2023-05-10T10:31:47;13.00;1.00
9885;DHT22;4981;50.966;4.842;2023-05-10T10:34:25;13.00;1.00
9885;DHT22;4981;50.966;4.842;2023-05-10T10:36:54;13.00;1.00
9885;DHT22;4981;50.966;4.842;2023-05-10T10:39:22;13.00;1.00
9885;DHT22;4981;50.966;4.842;2023-05-10T10:41:51;13.10;1.00
9885;DHT22;4981;50.966;4.842;2023-05-10T10:44:36;13.30;1.00
9885;DHT22;4981;50.966;4.842;2023-05-10T10:47:23;12.70;1.00
9885;DHT22;4981;50.966;4.842;2023-05-10T10:50:03;13.30;1.00
9885;DHT22;4981;50.966;4.842;2023-05-10T10:52:31;13.40;1.00
9885;DHT22;4981;50.966;4.842;2023-05-10T10:55:02;13.50;1.00
9885;DHT22;4981;50.966;4.842;2023-05-10T10:57:33;13.50;1.00
9885;DHT22;4981;50.966;4.842;2023-05-10T11:00:22;13.40;1.00
9885;DHT22;4981;50.966;4.842;2023-05-10T11:02:51;13.50;1.00
9885;DHT22;4981;50.966;4.842;2023-05-10T11:05:36;13.70;1.00
9885;DHT22;4981;50.966;4.842;2023-05-10T11:08:12;13.80;1.00
9885;DHT22;4981;50.966;4.842;2023-05-10T11:10:48;14.10;1.00
9885;DHT22;4981;50.966;4.842;2023-05-10T11:13:27;14.30;1.00
9885;DHT22;4981;50.966;4.842;2023-05-10T11:15:55;14.40;1.00
9885;DHT22;4981;50.966;4.842;2023-05-10T11:18:24;14.50;1.00
9885;DHT22;4981;50.966;4.842;2023-05-10T11:20:59;14.40;1.00
9885;DHT22;4981;50.966;4.842;2023-05-10T11:23:32;14.50;1.00
9885;DHT22;4981;50.966;4.842;2023-05-10T11:26:00;14.80;1.00
9885;DHT22;4981;50.966;4.842;2023-05-10T11:28:27;14.80;1.00
9885;DHT22;4981;50.966;4.842;2023-05-10T11:30:54;15.10;1.00
9885;DHT22;4981;50.966;4.842;2023-05-10T11:33:22;14.80;1.00
9885;DHT22;4981;50.966;4.842;2023-05-10T11:35:49;15.20;1.00
9885;DHT22;4981;50.966;4.842;2023-05-10T11:38:17;15.30;1.00
9885;DHT22;4981;50.966;4.842;2023-05-10T11:40:44;15.20;1.00
9885;DHT22;4981;50.966;4.842;2023-05-10T11:43:11;15.30;1.00
9885;DHT22;4981;50.966;4.842;2023-05-10T11:45:39;15.30;1.00
9885;DHT22;4981;50.966;4.842;2023-05-10T11:48:06;15.30;1.00
9885;DHT22;4981;50.966;4.842;2023-05-10T11:50:34;15.20;1.00
9885;DHT22;4981;50.966;4.842;2023-05-10T11:53:01;15.40;1.00
9885;DHT22;4981;50.966;4.842;2023-05-10T11:55:29;15.20;1.00
9885;DHT22;4981;50.966;4.842;2023-05-10T11:58:01;15.20;1.00
9885;DHT22;4981;50.966;4.842;2023-05-10T12:00:29;15.10;1.00
9885;DHT22;4981;50.966;4.842;2023-05-10T12:02:57;15.10;1.00
9885;DHT22;4981;50.966;4.842;2023-05-10T12:05:24;15.20;1.00
9885;DHT22;4981;50.966;4.842;2023-05-10T12:07:51;15.20;1.00
9885;DHT22;4981;50.966;4.842;2023-05-10T12:10:25;15.40;1.00
9885;DHT22;4981;50.966;4.842;2023-05-10T12:12:54;15.70;1.00
9885;DHT22;4981;50.966;4.842;2023-05-10T12:15:22;15.70;1.00
9885;DHT22;4981;50.966;4.842;2023-05-10T12:17:50;15.70;1.00
9885;DHT22;4981;50.966;4.842;2023-05-10T12:20:18;15.90;1.00
9885;DHT22;4981;50.966;4.842;2023-05-10T12:22:47;15.90;1.00
9885;DHT22;4981;50.966;4.842;2023-05-10T12:25:14;15.90;1.00
9885;DHT22;4981;50.966;4.842;2023-05-10T12:27:48;15.80;1.00
9885;DHT22;4981;50.966;4.842;2023-05-10T12:30:21;15.90;1.00
9885;DHT22;4981;50.966;4.842;2023-05-10T12:32:48;16.10;1.00
9885;DHT22;4981;50.966;4.842;2023-05-10T12:35:15;15.90;1.00
9885;DHT22;4981;50.966;4.842;2023-05-10T12:37:44;16.10;1.00
9885;DHT22;4981;50.966;4.842;2023-05-10T12:40:11;15.90;1.00
9885;DHT22;4981;50.966;4.842;2023-05-10T12:42:39;16.00;1.00
9885;DHT22;4981;50.966;4.842;2023-05-10T12:45:07;16.20;1.00
9885;DHT22;4981;50.966;4.842;2023-05-10T12:47:37;16.30;1.00
9885;DHT22;4981;50.966;4.842;2023-05-10T12:50:06;16.70;1.00
9885;DHT22;4981;50.966;4.842;2023-05-10T12:52:33;16.70;1.00
9885;DHT22;4981;50.966;4.842;2023-05-10T12:55:00;16.70;1.00
9885;DHT22;4981;50.966;4.842;2023-05-10T12:57:28;16.70;1.00
9885;DHT22;4981;50.966;4.842;2023-05-10T12:59:56;16.70;1.00
9885;DHT22;4981;50.966;4.842;2023-05-10T13:02:23;16.60;1.00
9885;DHT22;4981;50.966;4.842;2023-05-10T13:04:52;16.90;1.00
9885;DHT22;4981;50.966;4.842;2023-05-10T13:07:19;17.20;1.00
9885;DHT22;4981;50.966;4.842;2023-05-10T13:09:46;17.50;1.00
9885;DHT22;4981;50.966;4.842;2023-05-10T13:12:13;17.40;1.00
9885;DHT22;4981;50.966;4.842;2023-05-10T13:14:40;17.20;1.00
9885;DHT22;4981;50.966;4.842;2023-05-10T13:17:07;17.30;1.00
9885;DHT22;4981;50.966;4.842;2023-05-10T13:19:34;17.60;1.00
9885;DHT22;4981;50.966;4.842;2023-05-10T13:22:02;17.30;1.00
9885;DHT22;4981;50.966;4.842;2023-05-10T13:24:30;17.10;1.00
9885;DHT22;4981;50.966;4.842;2023-05-10T13:26:57;17.00;1.00
9885;DHT22;4981;50.966;4.842;2023-05-10T13:29:24;17.10;1.00
9885;DHT22;4981;50.966;4.842;2023-05-10T13:31:51;16.80;1.00
9885;DHT22;4981;50.966;4.842;2023-05-10T13:34:18;16.70;1.00
9885;DHT22;4981;50.966;4.842;2023-05-10T13:36:47;16.70;1.00
9885;DHT22;4981;50.966;4.842;2023-05-10T13:39:15;16.50;1.00
9885;DHT22;4981;50.966;4.842;2023-05-10T13:41:42;16.30;1.00
9885;DHT22;4981;50.966;4.842;2023-05-10T13:44:12;16.30;1.00
9885;DHT22;4981;50.966;4.842;2023-05-10T13:46:39;16.70;1.00
9885;DHT22;4981;50.966;4.842;2023-05-10T13:49:06;16.90;1.00
9885;DHT22;4981;50.966;4.842;2023-05-10T13:51:34;17.20;1.00
9885;DHT22;4981;50.966;4.842;2023-05-10T13:54:01;17.40;1.00
9885;DHT22;4981;50.966;4.842;2023-05-10T13:56:29;17.10;1.00
9885;DHT22;4981;50.966;4.842;2023-05-10T13:58:57;17.00;1.00
9885;DHT22;4981;50.966;4.842;2023-05-10T14:01:24;16.70;1.00
9885;DHT22;4981;50.966;4.842;2023-05-10T14:03:51;16.80;1.00
9885;DHT22;4981;50.966;4.842;2023-05-10T14:06:18;16.90;1.00
9885;DHT22;4981;50.966;4.842;2023-05-10T14:08:45;16.90;1.00
9885;DHT22;4981;50.966;4.842;2023-05-10T14:11:12;16.80;1.00
9885;DHT22;4981;50.966;4.842;2023-05-10T14:13:40;17.00;1.00
9885;DHT22;4981;50.966;4.842;2023-05-10T14:16:07;17.10;1.00
9885;DHT22;4981;50.966;4.842;2023-05-10T14:18:34;17.20;1.00
9885;DHT22;4981;50.966;4.842;2023-05-10T14:21:02;17.50;1.00
9885;DHT22;4981;50.966;4.842;2023-05-10T14:23:29;17.50;1.00
9885;DHT22;4981;50.966;4.842;2023-05-10T14:25:56;17.60;1.00
9885;DHT22;4981;50.966;4.842;2023-05-10T14:28:23;17.10;1.00
9885;DHT22;4981;50.966;4.842;2023-05-10T14:30:52;17.10;1.00
9885;DHT22;4981;50.966;4.842;2023-05-10T14:33:19;17.00;1.00
9885;DHT22;4981;50.966;4.842;2023-05-10T14:35:46;17.00;1.00
9885;DHT22;4981;50.966;4.842;2023-05-10T14:38:13;16.70;1.00
9885;DHT22;4981;50.966;4.842;2023-05-10T14:40:40;16.70;1.00
9885;DHT22;4981;50.966;4.842;2023-05-10T14:43:07;16.70;1.00
9885;DHT22;4981;50.966;4.842;2023-05-10T14:45:34;17.00;1.00
9885;DHT22;4981;50.966;4.842;2023-05-10T14:48:03;17.10;1.00
9885;DHT22;4981;50.966;4.842;2023-05-10T14:50:31;17.10;1.00
9885;DHT22;4981;50.966;4.842;2023-05-10T14:52:58;17.20;1.00
9885;DHT22;4981;50.966;4.842;2023-05-10T14:55:25;16.90;1.00
9885;DHT22;4981;50.966;4.842;2023-05-10T14:57:52;16.90;1.00
9885;DHT22;4981;50.966;4.842;2023-05-10T15:00:20;17.10;1.00
9885;DHT22;4981;50.966;4.842;2023-05-10T15:02:47;16.90;1.00
9885;DHT22;4981;50.966;4.842;2023-05-10T15:05:16;16.90;1.00
9885;DHT22;4981;50.966;4.842;2023-05-10T15:07:43;16.60;1.00
9885;DHT22;4981;50.966;4.842;2023-05-10T15:10:10;16.80;1.00
9885;DHT22;4981;50.966;4.842;2023-05-10T15:12:37;16.80;1.00
9885;DHT22;4981;50.966;4.842;2023-05-10T15:15:06;17.00;1.00
9885;DHT22;4981;50.966;4.842;2023-05-10T15:17:33;16.90;1.00
9885;DHT22;4981;50.966;4.842;2023-05-10T15:20:00;16.90;1.00
9885;DHT22;4981;50.966;4.842;2023-05-10T15:22:30;16.80;1.00
9885;DHT22;4981;50.966;4.842;2023-05-10T15:24:58;16.90;1.00
9885;DHT22;4981;50.966;4.842;2023-05-10T15:27:25;18.40;1.00
9885;DHT22;4981;50.966;4.842;2023-05-10T15:29:52;16.50;1.00
9885;DHT22;4981;50.966;4.842;2023-05-10T15:32:19;16.50;1.00
9885;DHT22;4981;50.966;4.842;2023-05-10T15:34:46;16.50;1.00
9885;DHT22;4981;50.966;4.842;2023-05-10T15:37:13;16.40;1.00
9885;DHT22;4981;50.966;4.842;2023-05-10T15:39:41;16.40;1.00
9885;DHT22;4981;50.966;4.842;2023-05-10T15:42:08;16.40;1.00
9885;DHT22;4981;50.966;4.842;2023-05-10T15:44:35;16.30;1.00
9885;DHT22;4981;50.966;4.842;2023-05-10T15:47:04;16.20;1.00
9885;DHT22;4981;50.966;4.842;2023-05-10T15:49:31;16.00;1.00
9885;DHT22;4981;50.966;4.842;2023-05-10T15:51:58;16.00;1.00
9885;DHT22;4981;50.966;4.842;2023-05-10T15:54:25;15.90;1.00
9885;DHT22;4981;50.966;4.842;2023-05-10T15:56:53;15.30;1.00
9885;DHT22;4981;50.966;4.842;2023-05-10T15:59:20;15.20;1.00
9885;DHT22;4981;50.966;4.842;2023-05-10T16:01:47;15.10;1.00
9885;DHT22;4981;50.966;4.842;2023-05-10T16:04:15;14.70;1.00
9885;DHT22;4981;50.966;4.842;2023-05-10T16:06:42;14.40;1.00
9885;DHT22;4981;50.966;4.842;2023-05-10T16:09:09;14.60;1.00
9885;DHT22;4981;50.966;4.842;2023-05-10T16:11:36;14.30;1.00
9885;DHT22;4981;50.966;4.842;2023-05-10T16:14:05;14.30;1.00
9885;DHT22;4981;50.966;4.842;2023-05-10T16:16:32;14.00;1.00
9885;DHT22;4981;50.966;4.842;2023-05-10T16:18:59;13.80;1.00
9885;DHT22;4981;50.966;4.842;2023-05-10T16:21:29;13.70;1.00
9885;DHT22;4981;50.966;4.842;2023-05-10T16:23:57;13.70;1.00
9885;DHT22;4981;50.966;4.842;2023-05-10T16:26:24;13.60;1.00
9885;DHT22;4981;50.966;4.842;2023-05-10T16:28:51;13.80;1.00
9885;DHT22;4981;50.966;4.842;2023-05-10T16:31:19;13.60;1.00